Time;durP1;ratioP1;P1;durP2;ratioP2;P2;SDS_P1;SDS_P2;PMS_P1;PMS_P2;Temp;Humidity;BMP_temperature;BMP_pressure;BME280_temperature;BME280_humidity;BME280_pressure;Samples;Min_cycle;Max_cycle;Signal;HPM_P1;HPM_P2
2023/12/16 00:02:04;;;;;;;22.83;6.47;;;10.30;99.90;;;;;;7283735;19;20199;-80
2023/12/16 00:04:30;;;;;;;17.63;5.73;;;10.30;99.90;;;;;;7285011;19;20189;-80
2023/12/16 00:06:56;;;;;;;21.07;5.73;;;10.30;99.90;;;;;;7306401;19;20721;-81
2023/12/16 00:09:22;;;;;;;21.10;6.33;;;10.40;99.90;;;;;;7282052;19;20221;-81
2023/12/16 00:11:48;;;;;;;18.70;5.67;;;10.30;99.90;;;;;;7281287;19;20197;-81
2023/12/16 00:14:14;;;;;;;25.90;6.50;;;10.30;99.90;;;;;;7282228;19;20195;-80
2023/12/16 00:16:45;;;;;;;22.40;6.40;;;10.30;99.90;;;;;;7281089;19;20191;-81
2023/12/16 00:19:11;;;;;;;19.93;6.23;;;10.40;99.90;;;;;;7282272;19;20230;-81
2023/12/16 00:21:37;;;;;;;21.07;6.23;;;10.40;99.90;;;;;;7280638;19;20206;-81
2023/12/16 00:24:04;;;;;;;19.73;5.67;;;10.40;99.90;;;;;;7282293;19;20194;-80
2023/12/16 00:26:30;;;;;;;25.17;7.50;;;10.30;99.90;;;;;;7281098;19;20214;-80
2023/12/16 00:28:56;;;;;;;20.27;6.30;;;10.30;99.90;;;;;;7301155;19;20190;-81
2023/12/16 00:31:21;;;;;;;23.43;7.23;;;10.30;99.90;;;;;;7279867;19;20195;-81
2023/12/16 00:33:47;;;;;;;29.37;7.20;;;10.30;99.90;;;;;;7281646;19;20206;-80
2023/12/16 00:36:13;;;;;;;22.90;6.57;;;10.30;99.90;;;;;;7280948;19;20221;-81
2023/12/16 00:38:39;;;;;;;20.33;7.23;;;10.40;99.90;;;;;;7282390;19;20198;-80
2023/12/16 00:41:04;;;;;;;24.67;6.47;;;10.30;99.90;;;;;;7280446;19;20593;-80
2023/12/16 00:43:31;;;;;;;25.50;6.77;;;10.20;99.90;;;;;;7282217;19;20205;-80
2023/12/16 00:45:57;;;;;;;19.57;6.80;;;10.30;99.90;;;;;;7303306;19;20189;-81
2023/12/16 00:48:22;;;;;;;20.27;7.30;;;10.30;99.90;;;;;;7281873;19;20668;-81
2023/12/16 00:50:48;;;;;;;19.03;6.60;;;10.10;99.90;;;;;;7283010;19;20495;-81
2023/12/16 00:53:14;;;;;;;25.37;7.07;;;10.20;99.90;;;;;;7281177;19;20195;-81
2023/12/16 00:55:40;;;;;;;24.83;7.00;;;10.30;99.90;;;;;;7280172;19;20199;-80
2023/12/16 00:58:09;;;;;;;17.37;6.13;;;10.30;99.90;;;;;;7279705;19;20191;-81
2023/12/16 01:00:34;;;;;;;19.30;6.53;;;10.20;99.90;;;;;;7282397;19;20192;-80
2023/12/16 01:03:00;;;;;;;16.63;6.67;;;10.20;99.90;;;;;;7279974;19;20189;-80
2023/12/16 01:05:26;;;;;;;19.53;6.47;;;10.30;99.90;;;;;;7304046;19;20726;-80
2023/12/16 01:07:52;;;;;;;20.17;7.33;;;10.30;99.90;;;;;;7281696;19;20188;-80
2023/12/16 01:10:18;;;;;;;25.93;7.03;;;10.30;99.90;;;;;;7282161;19;21036;-81
2023/12/16 01:12:45;;;;;;;22.92;7.30;;;10.30;99.90;;;;;;7280245;19;20724;-80
2023/12/16 01:15:11;;;;;;;19.57;6.70;;;10.20;99.90;;;;;;7279897;19;20616;-80
2023/12/16 01:17:37;;;;;;;19.90;6.57;;;10.30;99.90;;;;;;7279342;19;20192;-81
2023/12/16 01:20:05;;;;;;;18.90;6.83;;;10.30;99.90;;;;;;7278881;19;20186;-81
2023/12/16 01:22:31;;;;;;;24.40;7.20;;;10.30;99.90;;;;;;7279413;19;20195;-80
2023/12/16 01:24:56;;;;;;;22.57;6.40;;;10.20;99.90;;;;;;7304794;19;20542;-81
2023/12/16 01:27:22;;;;;;;22.87;6.73;;;10.20;99.90;;;;;;7281227;19;20279;-81
2023/12/16 01:29:48;;;;;;;24.50;7.10;;;10.20;99.90;;;;;;7287045;19;20328;-81
2023/12/16 01:32:14;;;;;;;18.17;6.07;;;10.20;99.90;;;;;;7289876;19;20607;-81
2023/12/16 01:34:39;;;;;;;20.60;5.97;;;10.20;99.90;;;;;;7287586;19;20192;-80
2023/12/16 01:37:05;;;;;;;19.30;6.00;;;10.00;99.90;;;;;;7286463;19;20195;-80
2023/12/16 01:39:31;;;;;;;20.40;6.53;;;10.00;99.90;;;;;;7287508;19;20183;-80
2023/12/16 01:41:57;;;;;;;20.07;6.30;;;10.10;99.90;;;;;;7307674;19;20224;-81
2023/12/16 01:44:23;;;;;;;23.00;6.07;;;10.10;99.90;;;;;;7287575;19;20187;-81
2023/12/16 01:46:50;;;;;;;21.93;6.23;;;10.10;99.90;;;;;;7287225;19;20583;-81
2023/12/16 01:49:16;;;;;;;19.40;6.40;;;10.00;99.90;;;;;;7286688;19;20196;-81
2023/12/16 01:51:43;;;;;;;19.20;6.43;;;10.20;99.90;;;;;;7286977;19;20308;-81
2023/12/16 01:54:11;;;;;;;19.27;6.30;;;10.20;99.90;;;;;;7287296;19;20201;-81
2023/12/16 01:56:38;;;;;;;22.07;6.53;;;10.30;99.90;;;;;;7287195;19;20191;-80
2023/12/16 01:59:05;;;;;;;19.30;5.87;;;10.30;99.90;;;;;;7288983;19;20698;-80
2023/12/16 02:01:31;;;;;;;20.33;5.70;;;10.30;99.90;;;;;;7287245;19;20221;-80
2023/12/16 02:03:58;;;;;;;20.23;5.97;;;10.30;99.90;;;;;;7309157;19;20713;-81
2023/12/16 02:06:25;;;;;;;20.67;5.67;;;10.30;99.90;;;;;;7288131;19;20224;-81
2023/12/16 02:08:51;;;;;;;21.50;5.63;;;10.30;99.90;;;;;;7286908;19;20193;-81
2023/12/16 02:11:17;;;;;;;16.97;5.70;;;10.30;99.90;;;;;;7285262;19;20210;-81
2023/12/16 02:13:43;;;;;;;26.47;6.33;;;10.30;99.90;;;;;;7287414;19;20194;-80
2023/12/16 02:16:10;;;;;;;18.13;5.03;;;10.20;99.90;;;;;;7287942;19;20198;-80
2023/12/16 02:18:36;;;;;;;22.90;5.70;;;10.10;99.90;;;;;;7289396;19;20195;-80
2023/12/16 02:21:02;;;;;;;18.13;5.37;;;9.90;99.90;;;;;;7288132;19;20636;-80
2023/12/16 02:23:28;;;;;;;18.77;5.20;;;9.90;99.90;;;;;;7304405;19;20210;-79
2023/12/16 02:25:54;;;;;;;18.67;5.20;;;9.90;99.90;;;;;;7300246;19;20190;-80
2023/12/16 02:28:19;;;;;;;20.27;5.37;;;9.90;99.90;;;;;;7286927;19;20976;-80
2023/12/16 02:30:45;;;;;;;18.43;5.23;;;9.90;99.90;;;;;;7286074;19;20249;-80
2023/12/16 02:33:11;;;;;;;18.27;5.53;;;9.90;99.90;;;;;;7287981;19;20201;-80
2023/12/16 02:35:37;;;;;;;19.50;5.47;;;9.90;99.90;;;;;;7285376;19;20195;-81
2023/12/16 02:38:02;;;;;;;17.80;5.10;;;9.80;99.90;;;;;;7286951;19;20180;-80
2023/12/16 02:40:29;;;;;;;24.83;5.63;;;9.80;99.90;;;;;;7297658;19;20212;-80
2023/12/16 02:42:55;;;;;;;22.67;5.07;;;9.80;99.90;;;;;;7304393;19;20190;-80
2023/12/16 02:45:21;;;;;;;19.00;5.13;;;9.70;99.90;;;;;;7286741;19;20521;-81
2023/12/16 02:47:46;;;;;;;18.70;4.83;;;9.60;99.90;;;;;;7286085;19;20295;-81
2023/12/16 02:50:12;;;;;;;23.63;5.20;;;9.50;99.90;;;;;;7286404;19;20183;-80
2023/12/16 02:52:38;;;;;;;23.50;4.77;;;9.50;99.90;;;;;;7286564;19;20187;-80
2023/12/16 02:55:04;;;;;;;20.13;4.77;;;9.50;99.90;;;;;;7286648;19;20591;-81
2023/12/16 02:57:30;;;;;;;17.13;4.53;;;9.60;99.90;;;;;;7289701;19;20215;-81
2023/12/16 02:59:55;;;;;;;16.50;4.73;;;9.50;99.90;;;;;;7307403;19;20644;-80
2023/12/16 03:02:21;;;;;;;19.53;4.97;;;9.50;99.90;;;;;;7284035;19;20293;-81
2023/12/16 03:04:47;;;;;;;17.03;4.77;;;9.50;99.90;;;;;;7286453;19;20189;-81
2023/12/16 03:07:12;;;;;;;16.93;4.53;;;9.30;99.90;;;;;;7287439;19;20189;-81
2023/12/16 03:09:38;;;;;;;19.37;5.50;;;9.30;99.90;;;;;;7285252;19;20196;-81
2023/12/16 03:12:06;;;;;;;17.13;4.77;;;9.20;99.90;;;;;;7285883;19;20337;-80
2023/12/16 03:14:34;;;;;;;19.33;5.10;;;9.20;99.90;;;;;;7283892;19;20189;-80
2023/12/16 03:16:59;;;;;;;18.77;4.50;;;9.20;99.90;;;;;;7287005;19;20778;-80
2023/12/16 03:19:27;;;;;;;16.03;4.60;;;9.20;99.90;;;;;;7307152;19;20231;-80
2023/12/16 03:21:53;;;;;;;16.60;4.03;;;9.20;99.90;;;;;;7284773;19;20641;-81
2023/12/16 03:24:18;;;;;;;20.23;5.10;;;9.20;99.90;;;;;;7285420;19;20281;-81
2023/12/16 03:26:44;;;;;;;21.37;4.87;;;9.10;99.90;;;;;;7286631;19;20223;-81
2023/12/16 03:29:10;;;;;;;22.97;4.30;;;9.10;99.90;;;;;;7282615;19;20212;-81
2023/12/16 03:31:35;;;;;;;26.17;5.17;;;9.00;99.90;;;;;;7284419;19;20189;-80
2023/12/16 03:34:02;;;;;;;17.90;4.40;;;9.00;99.90;;;;;;7284747;19;20207;-80
2023/12/16 03:36:28;;;;;;;24.40;4.73;;;9.00;99.90;;;;;;7304665;19;20206;-81
2023/12/16 03:38:53;;;;;;;17.43;4.70;;;8.80;99.90;;;;;;7285678;19;20177;-81
2023/12/16 03:41:19;;;;;;;15.70;4.40;;;8.80;99.90;;;;;;7284439;19;20182;-80
2023/12/16 03:43:45;;;;;;;22.20;5.33;;;8.80;99.90;;;;;;7286354;19;20213;-81
2023/12/16 03:46:11;;;;;;;23.20;4.63;;;8.90;99.90;;;;;;7284927;19;20194;-80
2023/12/16 03:48:37;;;;;;;20.53;4.80;;;8.80;99.90;;;;;;7284594;19;20182;-80
2023/12/16 03:51:03;;;;;;;20.40;4.43;;;8.80;99.90;;;;;;7286047;19;20193;-80
2023/12/16 03:53:29;;;;;;;18.07;4.60;;;8.70;99.90;;;;;;7287665;19;20194;-80
2023/12/16 03:55:56;;;;;;;20.93;4.40;;;8.80;99.90;;;;;;7306515;19;20205;-81
2023/12/16 03:58:21;;;;;;;15.23;4.17;;;8.70;99.90;;;;;;7284682;19;20189;-81
2023/12/16 04:00:47;;;;;;;18.73;3.93;;;8.70;99.90;;;;;;7285118;19;20614;-80
2023/12/16 04:03:13;;;;;;;19.23;4.10;;;8.70;99.90;;;;;;7283867;19;20189;-80
2023/12/16 04:05:39;;;;;;;19.77;4.60;;;8.70;99.90;;;;;;7283883;19;20215;-80
2023/12/16 04:08:05;;;;;;;19.97;4.43;;;8.80;99.90;;;;;;7284715;19;20272;-80
2023/12/16 04:10:30;;;;;;;15.67;4.33;;;8.80;99.90;;;;;;7283737;19;20206;-80
2023/12/16 04:12:56;;;;;;;18.03;3.97;;;8.70;99.90;;;;;;7307728;19;20189;-80
2023/12/16 04:15:22;;;;;;;20.17;4.80;;;8.60;99.90;;;;;;7282408;19;20276;-80
2023/12/16 04:17:47;;;;;;;17.50;3.77;;;8.60;99.90;;;;;;7284346;19;22082;-81
2023/12/16 04:20:13;;;;;;;17.67;4.10;;;8.60;99.90;;;;;;7284508;19;20185;-80
2023/12/16 04:22:39;;;;;;;16.50;3.97;;;8.70;99.90;;;;;;7283177;19;20648;-81
2023/12/16 04:25:10;;;;;;;19.10;3.90;;;8.60;99.90;;;;;;7284199;19;20189;-80
2023/12/16 04:27:37;;;;;;;18.60;4.17;;;8.60;99.90;;;;;;7283181;19;20731;-80
2023/12/16 04:30:04;;;;;;;17.07;3.90;;;8.50;99.90;;;;;;7283251;19;20210;-79
2023/12/16 04:32:30;;;;;;;18.07;3.93;;;8.50;99.90;;;;;;7290139;19;20260;-80
2023/12/16 04:34:56;;;;;;;16.07;3.97;;;8.50;99.90;;;;;;7305250;19;20551;-80
2023/12/16 04:37:22;;;;;;;17.23;3.63;;;8.50;99.90;;;;;;7283201;19;20194;-81
2023/12/16 04:39:48;;;;;;;16.60;3.60;;;8.50;99.90;;;;;;7283627;19;20193;-81
2023/12/16 04:42:13;;;;;;;15.47;4.00;;;8.40;99.90;;;;;;7282543;19;20230;-80
2023/12/16 04:44:40;;;;;;;19.97;4.07;;;8.40;99.90;;;;;;7284226;19;20189;-81
2023/12/16 04:47:05;;;;;;;18.97;3.90;;;8.40;99.90;;;;;;7284196;19;20616;-80
2023/12/16 04:49:31;;;;;;;17.50;3.57;;;8.50;99.90;;;;;;7282043;19;20256;-81
2023/12/16 04:51:57;;;;;;;19.63;3.80;;;8.50;99.90;;;;;;7304818;19;20190;-81
2023/12/16 04:54:22;;;;;;;17.90;3.97;;;8.70;99.90;;;;;;7283737;19;20196;-81
2023/12/16 04:56:49;;;;;;;18.23;3.93;;;8.80;99.90;;;;;;7282230;19;20206;-80
2023/12/16 04:59:14;;;;;;;17.80;3.20;;;8.80;99.90;;;;;;7283949;19;20540;-80
2023/12/16 05:01:40;;;;;;;15.63;3.40;;;8.80;99.90;;;;;;7280190;19;20595;-80
2023/12/16 05:04:06;;;;;;;17.87;3.77;;;8.90;99.90;;;;;;7283513;19;20711;-81
2023/12/16 05:06:31;;;;;;;16.43;3.37;;;8.90;99.90;;;;;;7289470;19;20211;-81
2023/12/16 05:08:57;;;;;;;15.13;3.27;;;9.00;99.90;;;;;;7311956;19;20222;-80
2023/12/16 05:11:23;;;;;;;17.60;3.30;;;9.00;99.90;;;;;;7290811;19;20178;-81
2023/12/16 05:13:49;;;;;;;18.57;3.30;;;9.00;99.90;;;;;;7290542;19;20187;-80
2023/12/16 05:16:19;;;;;;;14.13;3.50;;;9.10;99.90;;;;;;7289313;19;20190;-80
2023/12/16 05:18:45;;;;;;;15.47;3.03;;;9.00;99.90;;;;;;7288261;19;20218;-80
2023/12/16 05:21:12;;;;;;;17.93;3.43;;;9.10;99.90;;;;;;7289702;19;20189;-80
2023/12/16 05:23:38;;;;;;;20.33;3.40;;;9.20;99.90;;;;;;7288088;19;20306;-80
2023/12/16 05:26:04;;;;;;;19.07;3.63;;;9.20;99.90;;;;;;7289151;19;20281;-80
2023/12/16 05:28:32;;;;;;;17.17;3.37;;;9.30;99.90;;;;;;7294107;19;20206;-80
2023/12/16 05:30:58;;;;;;;23.03;3.07;;;9.30;99.90;;;;;;7310595;19;20257;-81
2023/12/16 05:33:24;;;;;;;18.07;3.03;;;9.40;99.90;;;;;;7290087;19;20203;-80
2023/12/16 05:35:49;;;;;;;17.33;2.40;;;9.50;99.90;;;;;;7288052;19;20195;-80
2023/12/16 05:38:15;;;;;;;19.93;3.23;;;9.50;99.90;;;;;;7289684;19;20217;-80
2023/12/16 05:40:41;;;;;;;20.50;3.10;;;9.50;99.90;;;;;;7287730;19;20199;-81
2023/12/16 05:43:08;;;;;;;17.23;3.00;;;9.50;99.90;;;;;;7286801;19;20191;-80
2023/12/16 05:45:33;;;;;;;17.03;2.83;;;9.60;99.90;;;;;;7288802;19;20194;-80
2023/12/16 05:48:00;;;;;;;15.03;3.17;;;9.60;99.90;;;;;;7296757;19;20704;-80
2023/12/16 05:50:25;;;;;;;17.13;2.90;;;9.70;99.90;;;;;;7307048;19;20248;-81
2023/12/16 05:52:51;;;;;;;23.00;3.33;;;9.70;99.90;;;;;;7287591;19;20610;-80
2023/12/16 05:55:17;;;;;;;15.87;2.90;;;9.70;99.90;;;;;;7284522;19;20195;-80
2023/12/16 05:57:43;;;;;;;15.00;3.10;;;9.80;99.90;;;;;;7286875;19;20199;-80
2023/12/16 06:00:09;;;;;;;15.33;3.10;;;9.90;99.90;;;;;;7286889;19;20275;-81
2023/12/16 06:02:35;;;;;;;19.43;3.40;;;10.00;99.90;;;;;;7285176;19;20188;-81
2023/12/16 06:05:01;;;;;;;12.17;2.80;;;10.00;99.90;;;;;;7288325;19;20202;-80
2023/12/16 06:07:27;;;;;;;19.10;3.03;;;10.00;99.90;;;;;;7309829;19;20638;-81
2023/12/16 06:09:53;;;;;;;13.50;2.70;;;9.90;99.90;;;;;;7286657;19;20309;-81
2023/12/16 06:12:19;;;;;;;14.70;2.57;;;10.10;99.90;;;;;;7289912;19;20260;-80
2023/12/16 06:14:46;;;;;;;14.63;2.50;;;10.10;99.90;;;;;;7285954;19;20202;-81
2023/12/16 06:17:12;;;;;;;14.37;2.73;;;9.90;99.90;;;;;;7286762;19;20191;-80
2023/12/16 06:19:38;;;;;;;19.70;2.80;;;9.80;99.90;;;;;;7287761;19;20240;-80
2023/12/16 06:22:04;;;;;;;14.90;3.17;;;9.70;99.90;;;;;;7287047;19;20184;-80
2023/12/16 06:24:29;;;;;;;15.67;3.30;;;9.70;99.90;;;;;;7298369;19;20198;-80
2023/12/16 06:26:55;;;;;;;15.90;2.73;;;9.60;99.90;;;;;;7307079;19;20206;-80
2023/12/16 06:29:21;;;;;;;17.67;3.33;;;9.60;99.90;;;;;;7285958;19;20207;-81
2023/12/16 06:31:46;;;;;;;22.50;3.87;;;9.70;99.90;;;;;;7286521;19;20201;-80
2023/12/16 06:34:12;;;;;;;17.87;2.90;;;9.60;99.90;;;;;;7287191;19;20199;-80
2023/12/16 06:36:38;;;;;;;16.07;3.23;;;9.70;99.90;;;;;;7285097;19;20563;-81
2023/12/16 06:39:03;;;;;;;20.00;3.23;;;9.70;99.90;;;;;;7287533;19;20188;-81
2023/12/16 06:41:30;;;;;;;19.83;3.57;;;9.70;99.90;;;;;;7296329;19;20573;-81
2023/12/16 06:43:56;;;;;;;16.83;2.80;;;9.70;99.90;;;;;;7300818;19;20669;-80
2023/12/16 06:46:23;;;;;;;13.43;2.97;;;9.80;99.90;;;;;;7286233;19;20195;-80
2023/12/16 06:48:49;;;;;;;14.17;3.17;;;9.90;99.90;;;;;;7286516;19;20198;-80
2023/12/16 06:51:15;;;;;;;22.47;3.20;;;9.90;99.90;;;;;;7286878;19;20209;-80
2023/12/16 06:53:40;;;;;;;18.23;3.27;;;10.00;99.90;;;;;;7285556;19;20192;-80
2023/12/16 06:56:10;;;;;;;17.33;3.27;;;9.90;99.90;;;;;;7284992;19;20191;-81
2023/12/16 06:58:37;;;;;;;19.53;3.00;;;9.90;99.90;;;;;;7285789;19;20729;-80
2023/12/16 07:01:03;;;;;;;17.97;3.73;;;9.90;99.90;;;;;;7285775;19;20735;-79
2023/12/16 07:03:28;;;;;;;19.57;3.63;;;9.70;99.90;;;;;;7305843;19;20620;-77
2023/12/16 07:05:57;;;;;;;16.77;3.40;;;9.90;99.90;;;;;;7295069;19;20849;-84
2023/12/16 07:08:23;;;;;;;19.53;3.10;;;9.90;99.90;;;;;;7287226;19;20193;-87
2023/12/16 07:10:49;;;;;;;20.63;3.40;;;10.00;99.90;;;;;;7287276;19;20194;-83
2023/12/16 07:13:15;;;;;;;18.57;3.53;;;10.00;99.90;;;;;;7287312;19;20217;-80
2023/12/16 07:15:40;;;;;;;18.30;4.10;;;10.00;99.90;;;;;;7284918;19;20184;-84
2023/12/16 07:18:06;;;;;;;19.77;4.10;;;10.00;99.90;;;;;;7285499;19;20194;-84
2023/12/16 07:20:35;;;;;;;14.20;3.13;;;10.00;99.90;;;;;;7283412;19;20183;-82
2023/12/16 07:23:01;;;;;;;13.90;3.50;;;10.10;99.90;;;;;;7284319;19;20188;-82
2023/12/16 07:25:26;;;;;;;18.93;3.23;;;10.10;99.90;;;;;;7308958;19;20190;-83
2023/12/16 07:27:52;;;;;;;18.53;3.30;;;10.20;99.90;;;;;;7285420;19;20182;-82
2023/12/16 07:30:18;;;;;;;15.77;3.43;;;10.20;99.90;;;;;;7284224;19;20192;-81
2023/12/16 07:32:44;;;;;;;19.17;3.27;;;10.20;99.90;;;;;;7286383;19;20729;-86
2023/12/16 07:35:13;;;;;;;20.37;3.20;;;10.30;99.90;;;;;;7285284;19;20187;-84
2023/12/16 07:37:42;;;;;;;13.80;3.20;;;10.20;99.90;;;;;;7285694;19;20611;-85
2023/12/16 07:40:09;;;;;;;20.30;3.20;;;10.20;99.90;;;;;;7287116;19;20184;-86
2023/12/16 07:42:39;;;;;;;18.37;3.53;;;10.30;99.90;;;;;;7286021;19;20224;-85
2023/12/16 07:45:05;;;;;;;17.37;3.40;;;10.30;99.90;;;;;;7283279;19;20277;-85
2023/12/16 07:47:32;;;;;;;15.60;3.60;;;10.40;99.90;;;;;;7285430;19;20203;-85
2023/12/16 07:49:58;;;;;;;23.57;9.77;;;10.40;99.90;;;;;;7306507;19;20195;-86
2023/12/16 07:52:24;;;;;;;16.20;5.97;;;10.40;99.90;;;;;;7284596;19;22014;-85
2023/12/16 07:54:50;;;;;;;18.27;4.70;;;10.50;99.90;;;;;;7284680;19;20239;-85
2023/12/16 07:57:16;;;;;;;18.30;4.17;;;10.50;99.90;;;;;;7285411;19;20269;-87
2023/12/16 07:59:43;;;;;;;20.83;4.47;;;10.40;99.90;;;;;;7283173;19;20210;-86
2023/12/16 08:02:10;;;;;;;14.70;3.80;;;10.40;99.90;;;;;;7285173;19;20268;-86
2023/12/16 08:04:39;;;;;;;16.50;3.70;;;10.30;99.90;;;;;;7283509;19;20221;-83
2023/12/16 08:07:04;;;;;;;17.30;4.10;;;10.30;99.90;;;;;;7293293;19;20596;-83
2023/12/16 08:09:31;;;;;;;19.63;4.50;;;10.30;99.90;;;;;;7290845;19;20209;-86
2023/12/16 08:11:58;;;;;;;18.77;3.90;;;10.30;99.90;;;;;;7301532;19;20185;-84
2023/12/16 08:14:25;;;;;;;15.13;3.63;;;10.30;99.90;;;;;;7283890;19;20187;-83
2023/12/16 08:16:50;;;;;;;16.97;4.43;;;10.30;99.90;;;;;;7280956;19;20256;-84
2023/12/16 08:19:16;;;;;;;16.97;3.50;;;10.30;99.90;;;;;;7283342;19;20188;-84
2023/12/16 08:21:42;;;;;;;19.20;3.50;;;10.30;99.90;;;;;;7282313;19;20207;-84
2023/12/16 08:24:08;;;;;;;16.30;3.73;;;10.40;99.90;;;;;;7283496;19;20196;-84
2023/12/16 08:26:34;;;;;;;16.63;3.50;;;10.30;99.90;;;;;;7282358;19;20200;-85
2023/12/16 08:29:00;;;;;;;22.17;4.33;;;10.20;99.90;;;;;;7294406;19;20640;-83
2023/12/16 08:31:25;;;;;;;15.07;3.53;;;10.30;99.90;;;;;;7302456;19;20543;-84
2023/12/16 08:33:51;;;;;;;21.10;3.97;;;10.30;99.90;;;;;;7284640;19;20199;-84
2023/12/16 08:36:17;;;;;;;25.30;4.93;;;10.20;99.90;;;;;;7284152;19;20192;-84
2023/12/16 08:38:44;;;;;;;14.13;3.63;;;10.20;99.90;;;;;;7282611;19;20189;-84
2023/12/16 08:41:10;;;;;;;20.20;4.30;;;10.20;99.90;;;;;;7283441;19;20246;-84
2023/12/16 08:43:37;;;;;;;17.10;4.40;;;10.30;99.90;;;;;;7283798;19;20628;-84
2023/12/16 08:46:03;;;;;;;18.77;3.90;;;10.40;99.90;;;;;;7283385;19;20258;-84
2023/12/16 08:48:29;;;;;;;19.93;4.37;;;10.40;99.90;;;;;;7300294;19;20258;-82
2023/12/16 08:50:57;;;;;;;18.27;3.83;;;10.50;99.90;;;;;;7296168;19;20184;-84
2023/12/16 08:53:24;;;;;;;16.30;3.50;;;10.50;99.90;;;;;;7284449;19;20185;-85
2023/12/16 08:55:50;;;;;;;20.27;3.80;;;10.60;99.90;;;;;;7284112;19;20183;-84
2023/12/16 08:58:16;;;;;;;22.73;4.03;;;10.70;99.90;;;;;;7284009;19;20181;-84
2023/12/16 09:00:43;;;;;;;15.83;3.90;;;10.70;99.90;;;;;;7284241;19;20208;-84
2023/12/16 09:03:09;;;;;;;23.07;4.07;;;10.60;99.90;;;;;;7282875;19;20623;-84
2023/12/16 09:05:36;;;;;;;18.03;3.80;;;10.70;99.90;;;;;;7284208;19;20283;-84
2023/12/16 09:08:02;;;;;;;18.57;3.80;;;10.80;99.90;;;;;;7282977;19;20301;-84
2023/12/16 09:10:29;;;;;;;17.70;4.03;;;10.80;99.90;;;;;;7305132;19;20220;-84
2023/12/16 09:12:55;;;;;;;17.10;4.00;;;10.90;99.90;;;;;;7283336;19;20709;-85
2023/12/16 09:15:20;;;;;;;17.40;4.13;;;11.00;99.90;;;;;;7285362;19;20297;-84
2023/12/16 09:17:49;;;;;;;19.23;3.73;;;11.10;99.90;;;;;;7282343;19;20217;-85
2023/12/16 09:20:16;;;;;;;16.57;4.13;;;11.00;99.90;;;;;;7284375;19;20185;-84
2023/12/16 09:22:42;;;;;;;17.33;3.70;;;11.10;99.90;;;;;;7281776;19;20189;-83
2023/12/16 09:25:09;;;;;;;20.43;4.40;;;11.00;99.90;;;;;;7280684;19;20250;-85
2023/12/16 09:27:35;;;;;;;21.00;4.87;;;11.00;99.90;;;;;;7281754;19;20184;-84
2023/12/16 09:30:02;;;;;;;18.70;4.10;;;11.10;99.90;;;;;;7282362;19;20192;-83
2023/12/16 09:32:28;;;;;;;20.20;4.40;;;11.10;99.90;;;;;;7305453;19;20566;-84
2023/12/16 09:34:54;;;;;;;20.60;4.03;;;11.10;99.90;;;;;;7284116;19;20185;-84
2023/12/16 09:37:19;;;;;;;27.83;6.90;;;10.90;99.90;;;;;;7282025;19;20202;-84
2023/12/16 09:39:45;;;;;;;19.47;5.40;;;10.90;99.90;;;;;;7281990;19;20181;-84
2023/12/16 09:42:12;;;;;;;21.00;5.53;;;11.00;99.90;;;;;;7282833;19;20253;-85
2023/12/16 09:44:40;;;;;;;20.87;5.17;;;11.10;99.90;;;;;;7281950;19;20184;-84
2023/12/16 09:47:08;;;;;;;19.17;4.43;;;11.20;99.90;;;;;;7282388;19;20181;-84
2023/12/16 09:49:38;;;;;;;19.93;5.37;;;11.20;99.90;;;;;;7282903;19;20184;-84
2023/12/16 09:52:05;;;;;;;21.13;5.43;;;11.20;99.90;;;;;;7287759;19;20180;-84
2023/12/16 09:54:30;;;;;;;19.87;4.87;;;11.10;99.90;;;;;;7288996;19;20196;-80
2023/12/16 09:56:58;;;;;;;18.47;4.10;;;11.20;99.90;;;;;;7309220;19;20184;-87
2023/12/16 09:59:27;;;;;;;18.77;4.17;;;11.20;99.90;;;;;;7288843;19;20185;-82
2023/12/16 10:02:08;;;;;;;20.43;5.10;;;11.20;99.90;;;;;;7289614;19;20632;-82
2023/12/16 10:04:35;;;;;;;16.90;4.60;;;11.30;99.90;;;;;;7184764;19;2004559;-81
2023/12/16 10:07:01;;;;;;;22.00;4.60;;;11.40;99.90;;;;;;7287232;19;20184;-81
2023/12/16 10:09:27;;;;;;;19.53;5.70;;;11.60;99.90;;;;;;7307671;19;20181;-82
2023/12/16 10:11:54;;;;;;;18.17;4.43;;;11.60;99.90;;;;;;7285401;19;20230;-81
2023/12/16 10:14:21;;;;;;;20.43;4.73;;;11.70;99.90;;;;;;7288106;19;20181;-82
2023/12/16 10:16:47;;;;;;;24.90;6.70;;;11.50;99.90;;;;;;7288387;19;20215;-82
2023/12/16 10:19:13;;;;;;;26.17;4.97;;;11.50;99.90;;;;;;7287736;19;20184;-81
2023/12/16 10:21:40;;;;;;;19.20;5.00;;;11.50;99.90;;;;;;7289328;19;20618;-81
2023/12/16 10:24:08;;;;;;;23.60;7.57;;;11.50;99.90;;;;;;7286418;19;20197;-82
2023/12/16 10:26:42;;;;;;;23.37;6.17;;;11.70;99.90;;;;;;7287487;19;20192;-86
2023/12/16 10:29:08;;;;;;;29.63;9.10;;;11.80;99.90;;;;;;7286605;19;20181;-82
2023/12/16 10:31:38;;;;;;;25.63;6.10;;;11.70;99.90;;;;;;7287268;19;21022;-82
2023/12/16 10:34:04;;;;;;;17.10;4.70;;;11.70;99.90;;;;;;7285349;19;20181;-82
2023/12/16 10:36:30;;;;;;;21.67;4.90;;;11.70;99.90;;;;;;7302936;19;20217;-82
2023/12/16 10:38:59;;;;;;;24.27;6.33;;;11.70;99.90;;;;;;7308057;19;20185;-83
2023/12/16 10:41:25;;;;;;;20.33;5.03;;;11.70;99.90;;;;;;7287569;19;20185;-83
2023/12/16 10:43:50;;;;;;;18.57;5.43;;;11.40;99.90;;;;;;7287116;19;20178;-82
2023/12/16 10:46:17;;;;;;;19.13;4.70;;;11.50;99.90;;;;;;7289015;19;20193;-82
2023/12/16 10:48:50;;;;;;;22.00;5.77;;;11.40;99.90;;;;;;7285874;19;20185;-83
2023/12/16 10:51:17;;;;;;;19.57;5.43;;;11.40;99.90;;;;;;7287606;19;20223;-83
2023/12/16 10:53:58;;;;;;;22.67;5.13;;;11.50;99.90;;;;;;7286264;19;20263;-81
2023/12/16 10:56:29;;;;;;;20.27;4.97;;;11.70;99.90;;;;;;7288225;19;20188;-81
2023/12/16 10:59:02;;;;;;;19.93;5.10;;;11.80;99.90;;;;;;7285989;19;20185;-82
2023/12/16 11:01:31;;;;;;;20.13;5.10;;;11.90;99.90;;;;;;7289310;19;20188;-82
2023/12/16 11:04:23;;;;;;;26.33;5.13;;;12.00;99.90;;;;;;7286215;19;20210;-81
2023/12/16 11:06:56;;;;;;;27.20;5.43;;;12.10;99.90;;;;;;7183436;19;2005024;-80
2023/12/16 11:09:23;;;;;;;23.60;5.60;;;12.20;99.90;;;;;;7286049;19;20715;-81
2023/12/16 11:11:49;;;;;;;22.20;6.10;;;12.20;99.90;;;;;;7286719;19;20187;-81
2023/12/16 11:14:16;;;;;;;19.83;5.87;;;12.20;99.90;;;;;;7286717;19;20193;-80
2023/12/16 11:16:49;;;;;;;23.77;5.83;;;12.30;99.90;;;;;;7283222;19;20220;-81
2023/12/16 11:19:16;;;;;;;19.63;5.60;;;12.20;99.90;;;;;;7284623;19;20197;-80
2023/12/16 11:21:43;;;;;;;19.53;5.80;;;12.20;99.90;;;;;;7285883;19;20177;-82
2023/12/16 11:24:10;;;;;;;24.47;6.37;;;12.30;99.90;;;;;;7283864;19;20706;-81
2023/12/16 11:26:36;;;;;;;30.23;9.63;;;12.20;99.90;;;;;;7282622;19;20276;-80
2023/12/16 11:29:03;;;;;;;19.20;5.70;;;12.20;99.90;;;;;;7283152;19;20186;-79
2023/12/16 11:31:30;;;;;;;22.37;5.70;;;12.20;99.90;;;;;;7305664;19;20196;-80
2023/12/16 11:33:56;;;;;;;19.63;5.43;;;12.00;99.90;;;;;;7285530;19;20200;-80
2023/12/16 11:36:50;;;;;;;25.37;6.30;;;12.00;99.90;;;;;;7284206;19;20623;-80
2023/12/16 11:39:35;;;;;;;20.90;5.83;;;12.00;99.90;;;;;;7183106;19;2004958;-80
2023/12/16 11:42:00;;;;;;;21.00;5.40;;;12.20;99.90;;;;;;7271298;19;20584;-80
2023/12/16 11:45:04;;;;;;;25.43;6.13;;;12.10;99.90;;;;;;7306501;19;20181;-80
2023/12/16 11:47:30;;;;;;;24.20;6.47;;;12.00;99.90;;;;;;7173828;19;2004780;-80
2023/12/16 11:49:56;;;;;;;23.13;7.27;;;12.10;99.90;;;;;;7302286;19;20189;-79
2023/12/16 11:52:24;;;;;;;19.90;6.10;;;12.20;99.90;;;;;;7284644;19;20182;-80
2023/12/16 11:54:54;;;;;;;23.43;7.97;;;12.20;99.90;;;;;;7285875;19;20205;-80
2023/12/16 11:57:25;;;;;;;26.67;7.57;;;12.20;99.90;;;;;;7283960;19;20210;-80
2023/12/16 11:59:51;;;;;;;26.03;6.80;;;12.20;99.90;;;;;;7284810;19;20592;-81
2023/12/16 12:02:18;;;;;;;26.83;6.93;;;12.00;99.90;;;;;;7284839;19;20200;-79
2023/12/16 12:04:45;;;;;;;23.83;6.70;;;12.00;99.90;;;;;;7284630;19;20199;-79
2023/12/16 12:07:12;;;;;;;23.53;6.80;;;12.00;99.90;;;;;;7283831;19;20222;-79
2023/12/16 12:09:44;;;;;;;27.67;7.80;;;12.10;99.90;;;;;;7283894;19;20181;-78
2023/12/16 12:12:12;;;;;;;26.17;7.03;;;12.20;99.90;;;;;;7285298;19;20318;-79
2023/12/16 12:14:39;;;;;;;32.50;7.93;;;12.20;99.90;;;;;;7283185;19;20190;-78
2023/12/16 12:17:05;;;;;;;31.27;7.23;;;12.20;99.90;;;;;;7283453;19;20217;-79
2023/12/16 12:19:32;;;;;;;26.07;8.00;;;12.30;99.90;;;;;;7283585;19;20185;-78
2023/12/16 12:21:57;;;;;;;26.27;7.50;;;12.30;99.90;;;;;;7307630;19;20221;-81
2023/12/16 12:24:23;;;;;;;30.10;9.80;;;12.40;99.90;;;;;;7281942;19;20695;-82
2023/12/16 12:26:51;;;;;;;28.23;8.17;;;12.40;99.90;;;;;;7286544;19;20280;-81
2023/12/16 12:29:17;;;;;;;28.00;7.67;;;12.20;99.90;;;;;;7282300;19;20214;-81
2023/12/16 12:31:46;;;;;;;30.00;8.00;;;12.20;99.90;;;;;;7284234;19;20190;-81
2023/12/16 12:34:19;;;;;;;28.03;8.27;;;12.30;99.90;;;;;;7283062;19;20200;-81
2023/12/16 12:36:55;;;;;;;33.60;8.40;;;12.10;99.90;;;;;;7282788;19;20192;-81
2023/12/16 12:39:23;;;;;;;28.80;7.77;;;12.10;99.90;;;;;;7282816;19;20196;-81